Index of /archive/ubuntu/dists

[ICO]NameLast modifiedSizeDescription

[PARENTDIR]Parent Directory  -  
[DIR]trusty/2015-10-07 12:44 -  
[DIR]xenial/2016-04-21 08:43 -  
[DIR]trusty-backports/2017-12-15 09:49 -  
[DIR]bionic/2018-04-27 00:38 -  
[DIR]focal/2020-04-23 18:34 -  
[DIR]trusty-security/2020-05-29 09:06 -  
[DIR]trusty-updates/2020-05-29 09:08 -  
[DIR]trusty-proposed/2020-06-06 07:57 -  
[DIR]jammy/2022-04-21 18:16 -  
[DIR]kinetic/2022-10-20 20:48 -  
[DIR]xenial-proposed/2022-11-25 14:13 -  
[DIR]devel-backports/2022-11-29 20:39 -  
[DIR]lunar-backports/2022-11-29 20:39 -  
[DIR]devel-security/2022-11-29 22:45 -  
[DIR]lunar-security/2022-11-29 22:45 -  
[DIR]devel-updates/2022-11-29 22:45 -  
[DIR]lunar-updates/2022-11-29 22:45 -  
[DIR]devel/2022-12-06 19:14 -  
[DIR]lunar/2022-12-06 19:14 -  
[DIR]devel-proposed/2022-12-06 19:14 -  
[DIR]lunar-proposed/2022-12-06 19:14 -  
[DIR]kinetic-security/2022-12-06 19:14 -  
[DIR]kinetic-updates/2022-12-06 19:14 -  
[DIR]kinetic-proposed/2022-12-06 19:14 -  
[DIR]kinetic-backports/2022-12-06 19:14 -  
[DIR]jammy-security/2022-12-06 19:14 -  
[DIR]jammy-updates/2022-12-06 19:15 -  
[DIR]jammy-proposed/2022-12-06 19:15 -  
[DIR]jammy-backports/2022-12-06 19:15 -  
[DIR]focal-security/2022-12-06 19:16 -  
[DIR]focal-updates/2022-12-06 19:18 -  
[DIR]focal-proposed/2022-12-06 19:18 -  
[DIR]focal-backports/2022-12-06 19:18 -  
[DIR]bionic-security/2022-12-06 19:19 -  
[DIR]bionic-updates/2022-12-06 19:21 -  
[DIR]bionic-proposed/2022-12-06 19:21 -  
[DIR]bionic-backports/2022-12-06 19:21 -  
[DIR]xenial-security/2022-12-06 19:22 -  
[DIR]xenial-updates/2022-12-06 19:23 -  
[DIR]xenial-backports/2022-12-06 19:23 -  

Apache/2.4.38 (Debian) Server at ubuntu.mirrors.uk2.net Port 443